Time;durP1;ratioP1;P1;durP2;ratioP2;P2;SDS_P1;SDS_P2;PMS_P1;PMS_P2;Temp;Humidity;BMP_temperature;BMP_pressure;BME280_temperature;BME280_humidity;BME280_pressure;Samples;Min_cycle;Max_cycle;Signal;HPM_P1;HPM_P2
2021/03/28 00:02:55;;;;;;;7.23;5.30;;;4.10;86.00;;;;;;5075188;28;20026;-58
2021/03/28 00:05:26;;;;;;;11.45;5.88;;;4.10;86.30;;;;;;5057074;28;20039;-58
2021/03/28 00:08:02;;;;;;;14.38;6.15;;;4.00;86.00;;;;;;5071501;28;20040;-56
2021/03/28 00:10:38;;;;;;;8.68;5.40;;;4.00;86.50;;;;;;5074489;28;20048;-54
2021/03/28 00:13:17;;;;;;;7.72;5.47;;;3.80;87.30;;;;;;5057116;28;20049;-53
2021/03/28 00:15:56;;;;;;;11.00;6.10;;;3.80;87.40;;;;;;5054394;28;20029;-57
2021/03/28 00:18:45;;;;;;;9.43;6.53;;;3.70;87.80;;;;;;5053759;28;20025;-55
2021/03/28 00:21:21;;;;;;;8.90;5.72;;;3.80;87.60;;;;;;5054413;28;20112;-57
2021/03/28 00:24:04;;;;;;;9.43;5.63;;;3.70;88.00;;;;;;5059187;28;20025;-53
2021/03/28 00:26:34;;;;;;;9.82;5.63;;;3.80;87.90;;;;;;5054473;28;20083;-57
2021/03/28 00:29:12;;;;;;;9.73;5.93;;;3.80;87.70;;;;;;5053629;28;20048;-51
2021/03/28 00:31:54;;;;;;;8.48;5.78;;;3.70;88.00;;;;;;5054082;28;20068;-53
2021/03/28 00:34:39;;;;;;;11.55;6.38;;;3.80;87.50;;;;;;5059492;28;20025;-52
2021/03/28 00:37:08;;;;;;;8.73;6.22;;;3.70;87.50;;;;;;5040222;28;20033;-55
2021/03/28 00:39:56;;;;;;;8.43;5.63;;;3.80;87.00;;;;;;5058897;28;20051;-57
2021/03/28 00:42:28;;;;;;;8.90;5.70;;;3.80;86.80;;;;;;5073527;28;20036;-53
2021/03/28 00:45:02;;;;;;;10.70;6.05;;;3.70;87.40;;;;;;5073652;28;20127;-56
2021/03/28 00:47:32;;;;;;;8.98;5.80;;;3.60;87.70;;;;;;5073776;28;20479;-53
2021/03/28 00:50:26;;;;;;;7.50;5.72;;;3.60;88.10;;;;;;5073896;28;20127;-54
2021/03/28 00:53:02;;;;;;;8.35;5.80;;;3.60;87.70;;;;;;5074323;28;20100;-52
2021/03/28 00:55:33;;;;;;;7.45;5.60;;;3.50;88.10;;;;;;5058919;28;20037;-54
2021/03/28 00:58:17;;;;;;;11.55;6.05;;;3.60;87.90;;;;;;5061530;28;20116;-54
2021/03/28 01:00:58;;;;;;;10.30;6.15;;;3.60;87.80;;;;;;5053599;28;20040;-56
2021/03/28 01:03:32;;;;;;;10.30;6.32;;;3.60;87.40;;;;;;5035917;28;20060;-54
2021/03/28 01:06:00;;;;;;;;;;;3.60;87.90;;;;;;5068509;28;20044;-56
2021/03/28 01:08:38;;;;;;;9.07;6.10;;;3.60;87.70;;;;;;5065424;28;19998;-56
2021/03/28 01:11:20;;;;;;;9.18;6.05;;;3.70;87.60;;;;;;5073290;28;20107;-58
2021/03/28 01:14:19;;;;;;;10.85;6.32;;;3.50;88.10;;;;;;5056072;28;20111;-57
2021/03/28 01:17:10;;;;;;;8.98;5.55;;;3.50;88.30;;;;;;5073003;28;20185;-51
2021/03/28 01:20:18;;;;;;;10.13;5.72;;;3.50;88.30;;;;;;5072647;28;20046;-56
2021/03/28 01:23:22;;;;;;;8.13;5.85;;;3.60;88.20;;;;;;5072812;28;20039;-54
2021/03/28 01:26:14;;;;;;;9.00;6.38;;;3.50;88.30;;;;;;5057910;28;20052;-51
2021/03/28 01:28:55;;;;;;;7.68;5.95;;;3.50;88.80;;;;;;5058499;28;20492;-53
2021/03/28 01:31:34;;;;;;;8.95;5.35;;;3.50;88.90;;;;;;5058883;28;20032;-53
2021/03/28 01:34:04;;;;;;;10.90;6.00;;;3.40;89.10;;;;;;5041482;28;20036;-56
2021/03/28 01:36:43;;;;;;;7.43;5.53;;;3.40;89.10;;;;;;5072364;28;20131;-54
2021/03/28 01:39:26;;;;;;;9.65;6.10;;;3.40;89.50;;;;;;5067225;28;20089;-55
2021/03/28 01:42:04;;;;;;;7.43;5.63;;;3.40;89.10;;;;;;5072332;28;20044;-53
2021/03/28 01:45:08;;;;;;;7.82;5.20;;;3.50;88.80;;;;;;5072769;28;20043;-55
2021/03/28 01:47:47;;;;;;;8.40;5.97;;;3.50;88.90;;;;;;4951122;28;20046;-55
2021/03/28 01:50:24;;;;;;;9.75;5.28;;;3.40;89.50;;;;;;4951104;28;20423;-53
2021/03/28 01:53:11;;;;;;;9.00;5.53;;;3.40;89.20;;;;;;5017640;28;20067;-52
2021/03/28 01:56:14;;;;;;;7.32;5.43;;;3.30;89.80;;;;;;5067261;28;20060;-56
2021/03/28 01:58:48;;;;;;;10.35;5.60;;;3.30;89.30;;;;;;5040818;28;20036;-48
2021/03/28 02:01:25;;;;;;;8.48;5.63;;;3.30;89.70;;;;;;5072240;28;20067;-51
2021/03/28 02:04:03;;;;;;;15.30;6.15;;;3.30;89.30;;;;;;5072267;28;20025;-54
2021/03/28 02:07:05;;;;;;;8.48;6.03;;;3.40;88.80;;;;;;5054647;28;20056;-58
2021/03/28 02:09:50;;;;;;;8.00;5.25;;;3.40;89.00;;;;;;5058186;28;20029;-54
2021/03/28 02:12:47;;;;;;;9.15;6.20;;;3.50;88.70;;;;;;5069356;28;20036;-55
2021/03/28 02:15:37;;;;;;;8.27;5.60;;;3.30;89.70;;;;;;5067007;28;20047;-54
2021/03/28 02:18:21;;;;;;;8.90;5.38;;;3.40;89.30;;;;;;5066219;28;20068;-50
2021/03/28 02:21:14;;;;;;;9.80;5.70;;;3.50;88.90;;;;;;5052329;28;20029;-53
2021/03/28 02:24:13;;;;;;;8.40;5.32;;;3.50;88.60;;;;;;5053212;28;20049;-53
2021/03/28 02:27:12;;;;;;;9.90;5.95;;;3.50;89.10;;;;;;5052405;28;20025;-52
2021/03/28 02:30:06;;;;;;;9.48;5.82;;;3.60;88.20;;;;;;5036720;28;20037;-53
2021/03/28 02:32:51;;;;;;;10.50;6.25;;;3.60;88.20;;;;;;5054918;28;20051;-50
2021/03/28 02:35:53;;;;;;;10.30;6.40;;;3.60;88.30;;;;;;5054249;28;20484;-52
2021/03/28 02:38:50;;;;;;;8.18;5.13;;;3.40;88.20;;;;;;5071610;28;20040;-54
2021/03/28 02:41:25;;;;;;;10.10;6.50;;;3.30;88.50;;;;;;5060762;28;20021;-55
2021/03/28 02:44:10;;;;;;;11.48;6.40;;;3.30;89.40;;;;;;5052586;28;20040;-51
2021/03/28 02:46:46;;;;;;;6.90;5.40;;;3.30;89.40;;;;;;5034628;28;20036;-55
2021/03/28 02:49:33;;;;;;;10.57;6.13;;;3.20;89.40;;;;;;5065851;28;20456;-51
2021/03/28 02:52:35;;;;;;;11.90;6.50;;;3.10;89.80;;;;;;5054536;28;20041;-56
2021/03/28 02:55:26;;;;;;;8.48;5.18;;;3.10;90.00;;;;;;5054715;28;20086;-55
2021/03/28 02:58:07;;;;;;;10.13;5.78;;;3.00;90.10;;;;;;5064029;28;20021;-52
2021/03/28 03:01:11;;;;;;;13.55;6.30;;;3.10;90.10;;;;;;5071593;28;20091;-51
2021/03/28 03:03:54;;;;;;;8.02;5.50;;;3.10;89.80;;;;;;5069175;28;20021;-53
2021/03/28 03:06:31;;;;;;;10.95;5.70;;;3.20;89.90;;;;;;5067780;28;20043;-50
2021/03/28 03:09:40;;;;;;;9.20;6.10;;;3.20;89.50;;;;;;5051188;28;20096;-54
2021/03/28 03:12:38;;;;;;;14.63;8.25;;;3.20;90.10;;;;;;5071687;28;20064;-51
2021/03/28 03:15:24;;;;;;;8.13;6.07;;;3.20;89.70;;;;;;5069926;28;20071;-54
2021/03/28 03:18:27;;;;;;;10.00;5.25;;;3.20;89.50;;;;;;5071554;28;20029;-53
2021/03/28 03:21:11;;;;;;;9.55;5.78;;;3.30;89.30;;;;;;5054409;28;20063;-53
2021/03/28 03:24:03;;;;;;;9.57;5.82;;;3.40;88.70;;;;;;5055395;28;20561;-53
2021/03/28 03:26:47;;;;;;;9.57;5.47;;;3.60;87.70;;;;;;5055535;28;20029;-55
2021/03/28 03:29:23;;;;;;;9.00;5.65;;;3.60;87.60;;;;;;5046861;28;20024;-50
2021/03/28 03:32:06;;;;;;;11.90;6.07;;;3.60;87.20;;;;;;5075473;28;20070;-54
2021/03/28 03:34:59;;;;;;;9.25;5.80;;;3.60;87.30;;;;;;5066729;28;20036;-50
2021/03/28 03:37:39;;;;;;;7.25;5.32;;;3.50;87.70;;;;;;5061523;28;20049;-52
2021/03/28 03:40:29;;;;;;;8.70;6.15;;;3.60;87.60;;;;;;5069853;28;20492;-53
2021/03/28 03:43:01;;;;;;;8.18;5.32;;;3.70;86.90;;;;;;5074184;28;20039;-54
2021/03/28 03:45:48;;;;;;;9.15;5.32;;;3.50;87.20;;;;;;5074611;28;20511;-55
2021/03/28 03:48:33;;;;;;;11.63;6.18;;;3.50;87.20;;;;;;5056932;28;20487;-55
2021/03/28 03:51:27;;;;;;;9.23;5.55;;;3.50;87.90;;;;;;5068363;28;20040;-54
2021/03/28 03:54:17;;;;;;;7.03;5.60;;;3.60;87.50;;;;;;5074435;28;20054;-56
2021/03/28 03:57:04;;;;;;;8.80;5.90;;;3.70;86.60;;;;;;5074698;28;20039;-54
2021/03/28 04:00:03;;;;;;;7.95;5.45;;;3.50;87.40;;;;;;5055362;28;20035;-54
2021/03/28 04:02:52;;;;;;;8.32;5.30;;;3.50;87.60;;;;;;5041154;28;20100;-53
2021/03/28 04:05:38;;;;;;;8.60;5.15;;;3.40;87.70;;;;;;5066681;28;20090;-52
2021/03/28 04:08:33;;;;;;;8.82;5.90;;;3.40;88.30;;;;;;5056505;28;20045;-54
2021/03/28 04:11:17;;;;;;;7.87;5.63;;;3.30;88.50;;;;;;5056298;28;20037;-50
2021/03/28 04:14:08;;;;;;;8.93;5.53;;;3.30;88.90;;;;;;5055074;28;20492;-50
2021/03/28 04:16:47;;;;;;;9.55;5.85;;;3.30;88.80;;;;;;5055685;28;20068;-51
2021/03/28 04:19:40;;;;;;;12.95;6.00;;;3.40;88.50;;;;;;5055844;28;20021;-54
2021/03/28 04:22:08;;;;;;;8.85;6.07;;;3.30;89.10;;;;;;5036831;28;20079;-55
2021/03/28 04:24:59;;;;;;;10.65;5.55;;;3.30;89.10;;;;;;5056585;28;20057;-56
2021/03/28 04:27:36;;;;;;;8.23;5.28;;;3.40;88.80;;;;;;5059514;28;20032;-57
2021/03/28 04:30:04;;;;;;;8.38;5.80;;;3.40;89.00;;;;;;5074008;28;20052;-55
2021/03/28 04:32:56;;;;;;;9.98;5.65;;;3.50;89.00;;;;;;5060449;28;20041;-53
2021/03/28 04:35:24;;;;;;;9.00;5.65;;;3.50;88.70;;;;;;5063893;28;20040;-54
2021/03/28 04:38:03;;;;;;;7.75;4.90;;;3.50;88.90;;;;;;5073207;28;20387;-52
2021/03/28 04:40:30;;;;;;;12.18;6.03;;;3.40;89.00;;;;;;5063866;28;20036;-56
2021/03/28 04:43:09;;;;;;;10.20;5.43;;;3.40;89.10;;;;;;5053799;28;20072;-57
2021/03/28 04:45:34;;;;;;;10.63;5.85;;;3.40;89.20;;;;;;5062675;28;20028;-52
2021/03/28 04:48:00;;;;;;;8.73;5.22;;;3.40;89.00;;;;;;5073268;28;20027;-56
2021/03/28 04:50:25;;;;;;;13.18;5.75;;;3.30;89.90;;;;;;5054040;28;20381;-55
2021/03/28 04:53:29;;;;;;;10.02;5.35;;;3.30;89.70;;;;;;5074188;28;20027;-55
2021/03/28 04:56:15;;;;;;;8.07;4.95;;;3.40;89.40;;;;;;5031544;28;20057;-56
2021/03/28 04:58:53;;;;;;;7.78;5.70;;;3.40;88.90;;;;;;5053621;28;20075;-53
2021/03/28 05:01:36;;;;;;;7.22;5.25;;;3.30;89.20;;;;;;5050043;28;20040;-55
2021/03/28 05:04:16;;;;;;;12.25;5.68;;;3.50;88.80;;;;;;5073671;28;20047;-56
2021/03/28 05:07:04;;;;;;;11.25;5.57;;;3.60;88.20;;;;;;5057004;28;20396;-53
2021/03/28 05:09:29;;;;;;;12.40;6.20;;;3.50;88.70;;;;;;5052951;28;20021;-55
2021/03/28 05:12:34;;;;;;;10.05;5.70;;;3.50;88.40;;;;;;5052818;28;20033;-55
2021/03/28 05:15:32;;;;;;;11.00;5.53;;;3.50;88.70;;;;;;5071885;28;20040;-58
2021/03/28 05:18:21;;;;;;;8.88;5.43;;;3.60;87.90;;;;;;5048885;28;20033;-58
2021/03/28 05:21:12;;;;;;;12.25;5.68;;;3.60;88.40;;;;;;5037775;28;20075;-52
2021/03/28 05:23:56;;;;;;;7.28;5.05;;;3.60;88.00;;;;;;5053244;28;20108;-56
2021/03/28 05:26:51;;;;;;;6.82;5.18;;;3.60;88.40;;;;;;5053951;28;20040;-56
2021/03/28 05:29:52;;;;;;;8.37;6.00;;;3.60;88.80;;;;;;5052965;28;20416;-51
2021/03/28 05:32:32;;;;;;;8.88;5.65;;;3.70;88.30;;;;;;5069978;28;20086;-53
2021/03/28 05:35:22;;;;;;;8.15;5.63;;;3.50;88.80;;;;;;5069242;28;20039;-53
2021/03/28 05:38:04;;;;;;;11.80;5.90;;;3.60;89.10;;;;;;5055925;28;20036;-52
2021/03/28 05:40:36;;;;;;;13.07;5.63;;;3.70;88.30;;;;;;5071417;28;20060;-55
2021/03/28 05:43:26;;;;;;;10.75;6.10;;;3.70;87.70;;;;;;5071827;28;20495;-53
2021/03/28 05:46:32;;;;;;;8.35;6.10;;;3.70;87.70;;;;;;5069202;28;20021;-53
2021/03/28 05:49:36;;;;;;;7.85;5.72;;;3.70;88.10;;;;;;5052738;28;20408;-55
2021/03/28 05:52:38;;;;;;;11.80;5.28;;;3.60;88.70;;;;;;5072450;28;20047;-56
2021/03/28 05:55:30;;;;;;;11.48;5.80;;;3.80;88.00;;;;;;5072296;28;20454;-51
2021/03/28 05:58:08;;;;;;;12.30;6.75;;;3.80;88.00;;;;;;5072048;28;20029;-55
2021/03/28 06:01:04;;;;;;;12.55;6.30;;;3.80;88.00;;;;;;5072458;28;20021;-54
2021/03/28 06:03:57;;;;;;;10.85;6.28;;;4.00;87.60;;;;;;5052938;28;20037;-51
2021/03/28 06:06:40;;;;;;;11.90;7.20;;;4.10;86.90;;;;;;5057771;28;20488;-56
2021/03/28 06:09:06;;;;;;;10.13;5.60;;;4.10;86.90;;;;;;5074546;28;20040;-51
2021/03/28 06:11:41;;;;;;;11.10;5.95;;;4.10;87.00;;;;;;5048765;28;20043;-54
2021/03/28 06:14:21;;;;;;;;;;;4.10;87.20;;;;;;5052898;28;20050;-51
2021/03/28 06:17:17;;;;;;;9.55;5.97;;;4.20;86.80;;;;;;5056621;28;19959;-58
2021/03/28 06:19:42;;;;;;;;;;;4.30;86.90;;;;;;5038767;28;20091;-56
2021/03/28 06:22:26;;;;;;;12.07;6.13;;;4.40;86.30;;;;;;5063220;28;20125;-55
2021/03/28 06:25:00;;;;;;;7.78;5.40;;;4.50;86.00;;;;;;5046463;28;20025;-57
2021/03/28 06:27:44;;;;;;;10.23;6.07;;;4.40;86.10;;;;;;5045616;28;20039;-55
2021/03/28 06:30:41;;;;;;;10.48;6.50;;;4.40;86.20;;;;;;5071012;28;20028;-55
2021/03/28 06:33:30;;;;;;;9.38;5.90;;;4.40;86.30;;;;;;5052099;28;20488;-52
2021/03/28 06:36:33;;;;;;;9.18;6.30;;;4.50;86.00;;;;;;5050422;28;20036;-52
2021/03/28 06:39:29;;;;;;;11.68;5.95;;;4.60;85.70;;;;;;5072265;28;20021;-53
2021/03/28 06:42:37;;;;;;;11.70;6.00;;;4.70;85.60;;;;;;5057807;28;20527;-52
2021/03/28 06:45:27;;;;;;;14.30;6.68;;;4.80;85.50;;;;;;5022557;28;20044;-54
2021/03/28 06:48:17;;;;;;;12.68;6.47;;;4.80;85.70;;;;;;5051480;28;20060;-55
2021/03/28 06:51:02;;;;;;;12.10;6.80;;;4.90;85.70;;;;;;5042148;28;20506;-54
2021/03/28 06:53:44;;;;;;;13.25;6.88;;;4.80;86.10;;;;;;5034129;28;20432;-52
2021/03/28 06:56:12;;;;;;;9.98;6.00;;;4.90;86.20;;;;;;5056489;28;20496;-55
2021/03/28 06:58:40;;;;;;;11.13;6.43;;;5.10;85.70;;;;;;5053923;28;20107;-55
2021/03/28 07:01:50;;;;;;;11.32;5.88;;;5.10;85.30;;;;;;5071152;28;20028;-55
2021/03/28 07:04:43;;;;;;;13.40;6.53;;;5.20;85.10;;;;;;5063243;28;20047;-57
2021/03/28 07:07:47;;;;;;;13.13;5.90;;;5.30;84.90;;;;;;5055590;28;20033;-54
2021/03/28 07:10:42;;;;;;;10.23;5.93;;;5.20;84.70;;;;;;5049948;28;20041;-55
2021/03/28 07:13:45;;;;;;;15.27;8.37;;;5.40;84.00;;;;;;5017714;28;20041;-50
2021/03/28 07:16:38;;;;;;;15.95;6.32;;;5.50;84.20;;;;;;5051748;28;20156;-56
2021/03/28 07:19:45;;;;;;;8.95;6.15;;;5.50;83.90;;;;;;5051799;28;20064;-53
2021/03/28 07:22:39;;;;;;;12.45;6.00;;;5.50;83.90;;;;;;5031648;28;20314;-54
2021/03/28 07:25:27;;;;;;;10.75;6.40;;;5.50;83.90;;;;;;5071840;28;20490;-52
2021/03/28 07:28:38;;;;;;;13.50;6.80;;;5.60;83.70;;;;;;5071512;28;20048;-55
2021/03/28 07:31:35;;;;;;;15.25;6.60;;;5.60;83.70;;;;;;5066937;28;20041;-55
2021/03/28 07:34:24;;;;;;;9.98;6.03;;;5.60;84.30;;;;;;5071674;28;20101;-57
2021/03/28 07:37:27;;;;;;;11.20;6.57;;;5.90;83.90;;;;;;5062455;28;20041;-54
2021/03/28 07:40:05;;;;;;;11.07;7.20;;;6.00;83.50;;;;;;5051647;28;20029;-52
2021/03/28 07:42:51;;;;;;;18.05;7.05;;;6.10;83.40;;;;;;5065187;28;20047;-55
2021/03/28 07:45:53;;;;;;;10.32;7.30;;;6.20;82.90;;;;;;5071322;28;20021;-54
2021/03/28 07:48:34;;;;;;;13.13;6.88;;;6.30;82.70;;;;;;5050898;28;20044;-54
2021/03/28 07:51:27;;;;;;;12.38;7.20;;;6.30;82.50;;;;;;5064609;28;20503;-53
2021/03/28 07:54:27;;;;;;;14.38;7.47;;;6.30;82.90;;;;;;5052041;28;20029;-54
2021/03/28 07:57:13;;;;;;;11.18;6.80;;;6.40;82.70;;;;;;5052952;28;20033;-54
2021/03/28 08:00:16;;;;;;;11.15;7.07;;;6.50;82.30;;;;;;5051584;28;20024;-53
2021/03/28 08:03:09;;;;;;;14.02;7.22;;;6.40;81.60;;;;;;5065188;28;20035;-55
2021/03/28 08:06:13;;;;;;;14.55;7.35;;;6.40;82.10;;;;;;5072752;28;20024;-54
2021/03/28 08:09:03;;;;;;;15.40;7.60;;;6.60;81.20;;;;;;5074881;28;20029;-52
2021/03/28 08:11:28;;;;;;;10.60;6.70;;;6.80;81.20;;;;;;5054933;28;20044;-58
2021/03/28 08:14:06;;;;;;;12.98;7.25;;;6.70;81.00;;;;;;5055498;28;20025;-59
2021/03/28 08:16:55;;;;;;;14.88;8.02;;;6.80;80.10;;;;;;5060814;28;20052;-56
2021/03/28 08:19:42;;;;;;;13.10;6.50;;;6.60;80.80;;;;;;5069673;28;20020;-56
2021/03/28 08:22:26;;;;;;;10.88;6.47;;;6.60;80.40;;;;;;5056646;28;20052;-53
2021/03/28 08:25:29;;;;;;;15.07;7.95;;;6.60;81.10;;;;;;5067684;28;20037;-53
2021/03/28 08:28:11;;;;;;;12.48;7.55;;;6.70;80.90;;;;;;5012977;28;20480;-53
2021/03/28 08:31:14;;;;;;;12.95;7.43;;;6.70;81.40;;;;;;5049436;28;20032;-50
2021/03/28 08:34:10;;;;;;;13.15;6.22;;;6.70;81.00;;;;;;5074223;28;20032;-54
2021/03/28 08:37:17;;;;;;;12.23;6.57;;;6.80;80.40;;;;;;5074804;28;20041;-55
2021/03/28 08:39:58;;;;;;;12.77;7.55;;;6.90;79.90;;;;;;4991082;28;20545;-54
2021/03/28 08:42:55;;;;;;;12.35;7.15;;;6.80;80.70;;;;;;5059747;28;20128;-55
2021/03/28 08:45:30;;;;;;;12.32;6.75;;;6.80;80.50;;;;;;5054493;28;20548;-53
2021/03/28 08:48:14;;;;;;;10.50;6.40;;;6.90;80.30;;;;;;5063312;28;20692;-52
2021/03/28 08:50:59;;;;;;;13.85;7.28;;;7.00;80.00;;;;;;5062643;28;20368;-56
2021/03/28 08:53:48;;;;;;;12.47;6.73;;;7.00;80.10;;;;;;5065984;28;20037;-57
2021/03/28 08:56:36;;;;;;;12.25;6.10;;;7.10;80.10;;;;;;5052857;28;20033;-55
2021/03/28 08:59:07;;;;;;;9.30;6.18;;;7.20;79.30;;;;;;5072820;28;20063;-55
2021/03/28 09:01:54;;;;;;;13.07;6.68;;;7.20;79.40;;;;;;5073550;28;20025;-57
2021/03/28 09:04:32;;;;;;;13.93;6.15;;;7.30;79.40;;;;;;5072484;28;20119;-52
2021/03/28 09:07:13;;;;;;;14.38;6.63;;;7.40;77.80;;;;;;5074025;28;20049;-51
2021/03/28 09:09:52;;;;;;;7.80;5.90;;;7.40;78.20;;;;;;5062406;28;20514;-51
2021/03/28 09:12:32;;;;;;;11.80;6.03;;;7.40;77.70;;;;;;5067465;28;20032;-52
2021/03/28 09:15:12;;;;;;;11.52;5.65;;;7.40;77.10;;;;;;5045835;28;20043;-58
2021/03/28 09:18:21;;;;;;;14.07;6.18;;;7.40;77.40;;;;;;5065102;28;20530;-55
2021/03/28 09:21:24;;;;;;;11.35;6.00;;;7.50;77.80;;;;;;5076244;28;20103;-53
2021/03/28 09:24:08;;;;;;;15.40;5.93;;;7.70;77.00;;;;;;5065550;28;20066;-56
2021/03/28 09:26:47;;;;;;;15.02;6.53;;;7.80;76.40;;;;;;5062590;28;20467;-56
2021/03/28 09:29:38;;;;;;;11.85;6.40;;;8.00;76.10;;;;;;5042001;28;20040;-54
2021/03/28 09:32:42;;;;;;;11.05;5.38;;;8.00;76.80;;;;;;5061003;28;20028;-56
2021/03/28 09:35:38;;;;;;;11.65;6.15;;;8.20;76.50;;;;;;5064422;28;20063;-58
2021/03/28 09:38:28;;;;;;;12.95;6.32;;;8.30;75.50;;;;;;5046051;28;20055;-58
2021/03/28 09:41:22;;;;;;;11.80;6.40;;;8.40;74.10;;;;;;5058465;28;20036;-58
2021/03/28 09:44:06;;;;;;;10.45;5.80;;;8.40;74.40;;;;;;5057915;28;20036;-56
2021/03/28 09:46:59;;;;;;;10.35;5.50;;;8.50;73.90;;;;;;5052234;28;20425;-55
2021/03/28 09:50:14;;;;;;;15.43;6.47;;;8.50;74.50;;;;;;5074365;28;20067;-57
2021/03/28 09:53:11;;;;;;;10.90;5.57;;;8.70;73.90;;;;;;4991033;28;20049;-56
2021/03/28 09:55:55;;;;;;;11.45;5.65;;;9.00;73.10;;;;;;5015270;28;20037;-56
2021/03/28 09:58:52;;;;;;;13.80;4.82;;;9.00;72.20;;;;;;5036487;28;20037;-56
2021/03/28 10:01:28;;;;;;;12.35;4.90;;;9.00;71.90;;;;;;5067476;28;20115;-56
2021/03/28 10:04:18;;;;;;;12.43;4.95;;;8.90;72.40;;;;;;5055528;28;20040;-57
2021/03/28 10:06:54;;;;;;;10.57;5.22;;;8.90;72.80;;;;;;5040255;28;20048;-52
2021/03/28 10:09:35;;;;;;;12.70;4.90;;;8.90;71.90;;;;;;5042921;28;20419;-52
2021/03/28 10:12:09;;;;;;;10.93;4.78;;;8.90;71.60;;;;;;5071763;28;20028;-54
2021/03/28 10:14:54;;;;;;;10.95;5.88;;;9.00;72.20;;;;;;5068303;28;20032;-53
2021/03/28 10:17:39;;;;;;;13.75;5.25;;;9.10;71.70;;;;;;5071183;28;20056;-53
2021/03/28 10:20:38;;;;;;;13.43;5.05;;;9.00;72.10;;;;;;5070781;28;20496;-56
2021/03/28 10:23:35;;;;;;;20.42;5.45;;;9.00;71.40;;;;;;5052025;28;20033;-54
2021/03/28 10:26:23;;;;;;;12.88;4.95;;;9.20;71.90;;;;;;5056639;28;20087;-60
2021/03/28 10:29:00;;;;;;;15.43;5.20;;;9.20;71.80;;;;;;5051393;28;20037;-52
2021/03/28 10:31:47;;;;;;;9.00;4.28;;;9.40;71.10;;;;;;5052447;28;20036;-54
2021/03/28 10:34:30;;;;;;;9.82;4.53;;;9.30;71.40;;;;;;5030310;28;20037;-58
2021/03/28 10:37:24;;;;;;;11.20;4.35;;;9.40;71.30;;;;;;5067396;28;20072;-58
2021/03/28 10:39:56;;;;;;;8.32;4.53;;;9.80;71.20;;;;;;5071138;28;20040;-57
2021/03/28 10:42:44;;;;;;;9.82;5.15;;;9.90;69.20;;;;;;5047216;28;20029;-53
2021/03/28 10:45:39;;;;;;;9.18;4.55;;;9.90;69.30;;;;;;5051790;28;20048;-57
2021/03/28 10:48:38;;;;;;;12.30;5.15;;;9.80;69.30;;;;;;5051437;28;20040;-56
2021/03/28 10:51:10;;;;;;;8.10;4.30;;;9.70;69.20;;;;;;5065573;28;20132;-62
2021/03/28 10:53:55;;;;;;;8.98;4.95;;;9.60;69.00;;;;;;5053682;28;20040;-56
2021/03/28 10:57:01;;;;;;;9.65;4.68;;;9.60;69.50;;;;;;5062602;28;20107;-57
2021/03/28 11:00:00;;;;;;;9.93;4.72;;;9.60;70.10;;;;;;5051792;28;20065;-54
2021/03/28 11:02:41;;;;;;;14.45;5.72;;;9.60;70.80;;;;;;5069789;28;20025;-54
2021/03/28 11:05:38;;;;;;;9.70;5.28;;;9.60;70.60;;;;;;5071827;28;20496;-55
2021/03/28 11:08:23;;;;;;;11.93;5.90;;;9.40;71.60;;;;;;5051537;28;20037;-53
2021/03/28 11:11:32;;;;;;;10.18;5.00;;;9.50;71.90;;;;;;5055621;28;20032;-55
2021/03/28 11:13:57;;;;;;;10.68;5.70;;;9.50;72.00;;;;;;5073254;28;20064;-54
2021/03/28 11:16:32;;;;;;;11.68;5.32;;;9.40;71.60;;;;;;5071246;28;20610;-54
2021/03/28 11:19:16;;;;;;;;;;;9.40;72.00;;;;;;5072594;28;20482;-53
2021/03/28 11:22:05;;;;;;;15.15;5.57;;;9.40;72.40;;;;;;5061470;28;19909;-55
2021/03/28 11:25:02;;;;;;;10.32;5.57;;;9.40;72.40;;;;;;5056002;28;20056;-58
2021/03/28 11:27:53;;;;;;;11.05;5.68;;;9.50;72.30;;;;;;5056070;28;20083;-53
2021/03/28 11:30:33;;;;;;;10.02;5.40;;;9.50;72.40;;;;;;5051214;28;20083;-53
2021/03/28 11:33:14;;;;;;;10.20;5.15;;;9.50;72.70;;;;;;5052302;28;20056;-56
2021/03/28 11:35:55;;;;;;;21.70;6.75;;;9.50;73.00;;;;;;5074085;28;20041;-54
2021/03/28 11:38:20;;;;;;;10.75;5.75;;;9.60;73.10;;;;;;5058285;28;20033;-56
2021/03/28 11:41:14;;;;;;;9.93;4.88;;;9.70;72.90;;;;;;5072425;28;20078;-53
2021/03/28 11:43:47;;;;;;;9.00;5.45;;;9.80;72.10;;;;;;5054706;28;20228;-56
2021/03/28 11:46:35;;;;;;;12.07;5.10;;;9.80;72.20;;;;;;5057660;28;20021;-56
2021/03/28 11:49:01;;;;;;;10.32;5.07;;;9.90;72.30;;;;;;5056696;28;20041;-57
2021/03/28 11:51:38;;;;;;;9.80;4.65;;;9.90;72.50;;;;;;5060057;28;20036;-59
2021/03/28 11:54:19;;;;;;;9.45;5.60;;;10.10;72.10;;;;;;5074996;28;20039;-55
2021/03/28 11:57:05;;;;;;;9.38;5.00;;;10.10;72.10;;;;;;5072742;28;20020;-53
2021/03/28 11:59:39;;;;;;;10.23;5.88;;;10.10;71.20;;;;;;5074015;28;20119;-55
2021/03/28 12:02:10;;;;;;;9.90;5.20;;;10.10;71.60;;;;;;5074028;28;20024;-57
2021/03/28 12:04:43;;;;;;;9.10;5.07;;;10.20;70.70;;;;;;5056261;28;20024;-53
2021/03/28 12:07:15;;;;;;;11.75;5.13;;;10.20;70.70;;;;;;5067531;28;20033;-55
2021/03/28 12:09:46;;;;;;;13.32;5.22;;;10.30;70.80;;;;;;5054581;28;20115;-57
2021/03/28 12:12:34;;;;;;;12.65;5.30;;;10.50;70.30;;;;;;5036670;28;20090;-59
2021/03/28 12:15:54;;;;;;;11.85;5.88;;;10.70;70.20;;;;;;5039736;28;20102;-58
2021/03/28 12:18:41;;;;;;;15.52;5.78;;;10.80;69.90;;;;;;4972952;28;20035;-56
2021/03/28 12:21:06;;;;;;;10.02;5.28;;;10.80;69.00;;;;;;5054887;28;20021;-55
2021/03/28 12:23:40;;;;;;;11.55;5.63;;;10.80;68.40;;;;;;5053492;28;20543;-53
2021/03/28 12:26:27;;;;;;;9.90;5.88;;;11.00;68.90;;;;;;5038935;28;20037;-57
2021/03/28 12:29:05;;;;;;;9.50;5.25;;;11.30;68.30;;;;;;5072194;28;20510;-57
2021/03/28 12:31:43;;;;;;;9.82;5.30;;;11.20;67.30;;;;;;5073601;28;20043;-56
2021/03/28 12:34:09;;;;;;;10.15;4.95;;;11.40;67.40;;;;;;5054664;28;20123;-57
2021/03/28 12:36:49;;;;;;;9.50;5.38;;;11.30;67.60;;;;;;5074494;28;20476;-61
2021/03/28 12:39:21;;;;;;;10.20;5.35;;;11.40;66.90;;;;;;5068484;28;20123;-58
2021/03/28 12:42:02;;;;;;;9.43;4.82;;;11.30;66.50;;;;;;5056616;28;20029;-60
2021/03/28 12:44:32;;;;;;;11.27;5.80;;;11.40;66.70;;;;;;5054113;28;20033;-60
2021/03/28 12:47:18;;;;;;;9.48;5.55;;;11.50;66.40;;;;;;5050655;28;20107;-64
2021/03/28 12:50:07;;;;;;;12.75;6.13;;;11.50;66.60;;;;;;5057042;28;20028;-63
2021/03/28 12:52:44;;;;;;;9.13;4.88;;;11.70;66.80;;;;;;5073072;28;20556;-64
2021/03/28 12:55:18;;;;;;;8.77;5.25;;;11.70;65.60;;;;;;5074564;28;20043;-64
2021/03/28 12:58:07;;;;;;;9.80;5.82;;;11.70;65.50;;;;;;5067360;28;20467;-56
2021/03/28 13:00:38;;;;;;;11.52;5.57;;;11.70;66.50;;;;;;5053509;28;20073;-60
2021/03/28 13:03:25;;;;;;;11.98;5.82;;;11.90;66.20;;;;;;5060953;28;20024;-60
2021/03/28 13:06:02;;;;;;;10.50;6.07;;;12.00;66.00;;;;;;5073422;28;20384;-59
2021/03/28 13:08:30;;;;;;;8.27;4.90;;;12.00;66.00;;;;;;5063392;28;20037;-62
2021/03/28 13:11:02;;;;;;;10.70;5.82;;;12.00;65.50;;;;;;5052405;28;20045;-56
2021/03/28 13:13:28;;;;;;;13.35;6.07;;;12.20;65.80;;;;;;5064089;28;20041;-61
2021/03/28 13:15:59;;;;;;;8.13;5.38;;;12.30;65.70;;;;;;5052572;28;20052;-63
2021/03/28 13:18:40;;;;;;;11.38;5.60;;;12.40;65.40;;;;;;5059796;28;20033;-58
2021/03/28 13:21:29;;;;;;;9.27;5.35;;;12.50;65.00;;;;;;5073661;28;20031;-60
2021/03/28 13:24:03;;;;;;;9.23;4.95;;;12.40;63.20;;;;;;5061196;28;20064;-61
2021/03/28 13:26:32;;;;;;;8.45;5.00;;;12.30;64.00;;;;;;5051275;28;20120;-60
2021/03/28 13:29:19;;;;;;;8.82;5.72;;;12.40;64.10;;;;;;5051858;28;20148;-67
2021/03/28 13:31:56;;;;;;;9.48;4.55;;;12.60;64.80;;;;;;5070430;28;20039;-54
2021/03/28 13:34:36;;;;;;;6.75;4.22;;;12.70;60.10;;;;;;5072918;28;20064;-62
2021/03/28 13:37:10;;;;;;;6.00;3.75;;;12.70;53.80;;;;;;5064897;28;20032;-62
2021/03/28 13:39:59;;;;;;;10.55;4.30;;;12.70;51.80;;;;;;5068507;28;20037;-59
2021/03/28 13:42:34;;;;;;;12.63;4.00;;;12.80;52.80;;;;;;5044804;28;20044;-62
2021/03/28 13:45:24;;;;;;;6.22;3.88;;;13.00;53.10;;;;;;5054322;28;20048;-56
2021/03/28 13:48:08;;;;;;;7.68;3.88;;;13.30;52.80;;;;;;5045493;28;20132;-61
2021/03/28 13:51:00;;;;;;;6.65;3.72;;;13.60;53.10;;;;;;5072677;28;20077;-58
2021/03/28 13:53:40;;;;;;;9.65;4.22;;;13.90;53.30;;;;;;5066827;28;20029;-56
2021/03/28 13:56:17;;;;;;;8.23;4.22;;;14.20;52.60;;;;;;5032610;28;20628;-52
2021/03/28 13:58:45;;;;;;;7.63;3.83;;;14.50;52.00;;;;;;5040935;28;20037;-55
2021/03/28 14:01:27;;;;;;;12.18;4.30;;;14.50;51.10;;;;;;5070351;28;20033;-59
2021/03/28 14:03:58;;;;;;;9.63;4.22;;;14.50;51.40;;;;;;5050300;28;20397;-58
2021/03/28 14:06:31;;;;;;;11.23;4.40;;;14.40;50.80;;;;;;5031970;28;20064;-59
2021/03/28 14:09:03;;;;;;;9.15;3.80;;;13.80;52.20;;;;;;5056799;28;20119;-54
2021/03/28 14:11:46;;;;;;;5.63;3.65;;;13.80;52.00;;;;;;5072138;28;20111;-54
2021/03/28 14:14:32;;;;;;;6.60;3.78;;;13.50;53.00;;;;;;5046641;28;20037;-61
2021/03/28 14:17:20;;;;;;;7.20;3.63;;;13.20;53.90;;;;;;5053044;28;20032;-61
2021/03/28 14:19:47;;;;;;;8.25;3.85;;;13.00;54.70;;;;;;5051408;28;20408;-64
2021/03/28 14:22:37;;;;;;;7.22;4.03;;;13.10;55.30;;;;;;5059115;28;20045;-64
2021/03/28 14:25:11;;;;;;;7.88;3.72;;;13.00;55.50;;;;;;5063888;28;20131;-62